createdAt,value
2018-06-24T00:00:43.618Z,98.30
2018-06-24T00:03:11.138Z,98.30
2018-06-24T00:08:10.772Z,98.30
2018-06-24T00:10:38.374Z,98.40
2018-06-24T00:13:05.925Z,98.50
2018-06-24T00:15:33.362Z,98.50
2018-06-24T00:18:00.766Z,98.60
2018-06-24T00:20:28.190Z,98.70
2018-06-24T00:22:55.605Z,98.60
2018-06-24T00:25:23.078Z,98.80
2018-06-24T00:27:50.558Z,98.70
2018-06-24T00:30:18.054Z,98.80
2018-06-24T00:32:45.549Z,98.80
2018-06-24T00:35:13.006Z,98.70
2018-06-24T00:37:40.477Z,98.60
2018-06-24T00:40:08.150Z,98.60
2018-06-24T00:42:35.567Z,98.60
2018-06-24T00:45:03.118Z,98.70
2018-06-24T00:47:30.544Z,98.70
2018-06-24T00:49:57.991Z,98.70
2018-06-24T00:52:25.429Z,99.00
2018-06-24T00:54:52.865Z,99.40
2018-06-24T00:57:20.374Z,99.80
2018-06-24T01:00:21.157Z,99.90
2018-06-24T01:02:48.685Z,99.90
2018-06-24T01:05:16.152Z,99.90
2018-06-24T01:07:44.635Z,99.90
2018-06-24T01:10:12.397Z,99.90
2018-06-24T01:12:40.349Z,99.90
2018-06-24T01:15:08.513Z,99.90
2018-06-24T01:17:35.990Z,99.90
2018-06-24T01:20:04.931Z,99.90
2018-06-24T01:22:32.442Z,99.90
2018-06-24T01:24:59.957Z,99.90
2018-06-24T01:27:27.410Z,99.90
2018-06-24T01:29:54.941Z,99.90
2018-06-24T01:32:23.181Z,99.90
2018-06-24T01:34:50.616Z,99.90
2018-06-24T01:37:18.097Z,99.90
2018-06-24T01:39:45.564Z,99.90
2018-06-24T01:42:13.133Z,99.90
2018-06-24T01:44:40.605Z,99.90
2018-06-24T01:47:08.093Z,99.90
2018-06-24T01:49:35.661Z,99.90
2018-06-24T01:52:03.560Z,99.90
2018-06-24T01:54:31.230Z,99.90
2018-06-24T01:56:58.658Z,99.90
2018-06-24T01:59:26.145Z,99.90
2018-06-24T02:01:54.224Z,99.90
2018-06-24T02:04:21.926Z,99.90
2018-06-24T02:06:49.571Z,99.90
2018-06-24T02:09:17.035Z,99.90
2018-06-24T02:11:44.513Z,99.90
2018-06-24T02:14:12.074Z,99.90
2018-06-24T02:16:39.581Z,99.90
2018-06-24T02:19:08.339Z,99.90
2018-06-24T02:21:35.718Z,99.90
2018-06-24T02:24:03.447Z,99.90
2018-06-24T02:26:30.973Z,99.90
2018-06-24T02:28:58.422Z,99.90
2018-06-24T02:31:26.038Z,99.90
2018-06-24T02:33:54.092Z,99.90
2018-06-24T02:36:21.634Z,99.90
2018-06-24T02:38:49.071Z,99.90
2018-06-24T02:41:16.515Z,99.90
2018-06-24T02:43:43.954Z,99.90
2018-06-24T02:46:11.448Z,99.90
2018-06-24T02:48:39.130Z,99.90
2018-06-24T02:51:06.596Z,99.90
2018-06-24T02:53:34.480Z,99.90
2018-06-24T02:56:02.061Z,99.90
2018-06-24T02:58:29.851Z,99.90
2018-06-24T03:00:57.390Z,99.90
2018-06-24T03:03:24.839Z,99.90
2018-06-24T03:05:52.362Z,99.90
2018-06-24T03:08:19.951Z,99.90
2018-06-24T03:13:15.235Z,99.90
2018-06-24T03:15:42.706Z,99.90
2018-06-24T03:18:10.138Z,99.90
2018-06-24T03:20:37.603Z,99.90
2018-06-24T03:23:05.026Z,99.90
2018-06-24T03:25:32.511Z,99.90
2018-06-24T03:27:59.931Z,99.90
2018-06-24T03:30:27.417Z,99.90
2018-06-24T03:32:54.869Z,99.90
2018-06-24T03:35:22.347Z,99.90
2018-06-24T03:37:49.830Z,99.90
2018-06-24T03:40:17.357Z,99.90
2018-06-24T03:42:45.080Z,99.90
2018-06-24T03:45:12.566Z,99.90
2018-06-24T03:47:40.039Z,99.90
2018-06-24T03:50:07.543Z,99.90
2018-06-24T03:52:35.151Z,99.90
2018-06-24T03:55:02.811Z,99.90
2018-06-24T03:57:30.315Z,99.90
2018-06-24T03:59:57.853Z,99.90
2018-06-24T04:02:25.372Z,99.90
2018-06-24T04:04:52.844Z,99.90
2018-06-24T04:07:20.481Z,99.90
2018-06-24T04:09:48.018Z,99.90
2018-06-24T04:12:15.511Z,99.90
2018-06-24T04:14:42.957Z,99.90
2018-06-24T04:17:10.432Z,99.90
2018-06-24T04:19:37.940Z,99.90
2018-06-24T04:22:05.573Z,99.90
2018-06-24T04:24:33.025Z,99.90
2018-06-24T04:27:00.518Z,99.90
2018-06-24T04:29:27.950Z,99.90
2018-06-24T04:31:55.406Z,99.90
2018-06-24T04:34:22.990Z,99.90
2018-06-24T04:36:50.450Z,99.90
2018-06-24T04:39:17.935Z,99.90
2018-06-24T04:41:45.362Z,99.90
2018-06-24T04:44:12.865Z,99.90
2018-06-24T04:46:40.386Z,99.90
2018-06-24T04:49:07.858Z,99.90
2018-06-24T04:51:35.340Z,99.90
2018-06-24T04:54:02.933Z,99.90
2018-06-24T04:56:30.556Z,99.90
2018-06-24T04:58:58.109Z,99.90
2018-06-24T05:01:25.800Z,99.90
2018-06-24T05:03:53.258Z,99.90
2018-06-24T05:06:20.808Z,99.90
2018-06-24T05:08:48.283Z,99.90
2018-06-24T05:11:15.771Z,99.90
2018-06-24T05:13:43.258Z,99.90
2018-06-24T05:16:10.763Z,99.90
2018-06-24T05:18:38.451Z,99.90
2018-06-24T05:23:33.429Z,99.90
2018-06-24T05:26:00.818Z,99.90
2018-06-24T05:28:28.311Z,99.90
2018-06-24T05:30:55.843Z,99.90
2018-06-24T05:33:23.340Z,99.90
2018-06-24T05:35:50.802Z,99.90
2018-06-24T05:38:18.266Z,99.90
2018-06-24T05:40:46.008Z,99.90
2018-06-24T05:43:13.483Z,99.90
2018-06-24T05:45:40.926Z,99.90
2018-06-24T05:48:08.389Z,99.90
2018-06-24T05:50:35.857Z,99.90
2018-06-24T05:53:03.605Z,99.90
2018-06-24T05:55:31.276Z,99.90
2018-06-24T05:57:58.765Z,99.90
2018-06-24T06:00:26.284Z,99.90
2018-06-24T06:05:21.618Z,99.90
2018-06-24T06:07:49.044Z,99.90
2018-06-24T06:10:16.513Z,99.90
2018-06-24T06:12:44.041Z,99.90
2018-06-24T06:15:11.551Z,99.90
2018-06-24T06:17:39.067Z,99.90
2018-06-24T06:20:07.050Z,99.90
2018-06-24T06:22:34.450Z,99.90
2018-06-24T06:25:02.037Z,99.90
2018-06-24T06:27:29.562Z,99.90
2018-06-24T06:29:57.015Z,99.90
2018-06-24T06:32:25.738Z,99.90
2018-06-24T06:34:53.179Z,99.90
2018-06-24T06:39:48.118Z,99.90
2018-06-24T06:42:15.667Z,99.90
2018-06-24T06:44:43.171Z,99.90
2018-06-24T06:47:10.578Z,99.90
2018-06-24T06:49:38.037Z,99.90
2018-06-24T06:52:05.935Z,99.90
2018-06-24T06:54:33.549Z,99.90
2018-06-24T06:57:01.022Z,99.90
2018-06-24T06:59:28.492Z,99.90
2018-06-24T07:01:55.950Z,99.90
2018-06-24T07:04:23.497Z,99.90
2018-06-24T07:09:18.535Z,99.90
2018-06-24T07:11:46.011Z,99.90
2018-06-24T07:14:13.609Z,99.90
2018-06-24T07:16:41.087Z,99.90
2018-06-24T07:21:36.094Z,99.90
2018-06-24T07:24:04.149Z,99.90
2018-06-24T07:26:31.677Z,99.90
2018-06-24T07:28:59.415Z,99.90
2018-06-24T07:31:26.913Z,99.90
2018-06-24T07:33:54.407Z,99.90
2018-06-24T07:36:21.859Z,99.90
2018-06-24T07:38:49.302Z,99.80
2018-06-24T07:41:16.738Z,99.70
2018-06-24T07:43:44.533Z,99.90
2018-06-24T07:46:11.987Z,99.80
2018-06-24T07:48:39.541Z,99.60
2018-06-24T07:51:07.454Z,99.70
2018-06-24T07:53:34.952Z,99.60
2018-06-24T07:56:02.758Z,98.90
2018-06-24T07:58:30.238Z,99.40
2018-06-24T08:00:57.957Z,99.30
2018-06-24T08:03:25.555Z,99.50
2018-06-24T08:05:52.931Z,98.90
2018-06-24T08:08:20.353Z,99.10
2018-06-24T08:10:47.852Z,99.40
2018-06-24T08:13:15.393Z,99.20
2018-06-24T08:15:42.853Z,99.20
2018-06-24T08:18:10.324Z,98.60
2018-06-24T08:20:37.760Z,98.40
2018-06-24T08:23:05.612Z,98.60
2018-06-24T08:25:33.083Z,99.30
2018-06-24T08:28:00.499Z,99.10
2018-06-24T08:30:28.007Z,98.60
2018-06-24T08:32:55.469Z,98.40
2018-06-24T08:35:22.958Z,97.70
2018-06-24T08:37:50.422Z,97.50
2018-06-24T08:40:17.965Z,98.10
2018-06-24T08:42:45.431Z,97.90
2018-06-24T08:45:12.971Z,98.00
2018-06-24T08:47:40.710Z,97.80
2018-06-24T08:50:08.199Z,98.10
2018-06-24T08:52:35.595Z,97.20
2018-06-24T08:55:03.181Z,97.50
2018-06-24T08:57:30.682Z,97.90
2018-06-24T08:59:58.103Z,97.90
2018-06-24T09:02:25.566Z,98.20
2018-06-24T09:04:53.070Z,97.60
2018-06-24T09:07:20.594Z,97.60
2018-06-24T09:09:48.071Z,98.10
2018-06-24T09:12:15.529Z,97.50
2018-06-24T09:14:43.537Z,97.10
2018-06-24T09:17:11.085Z,96.80
2018-06-24T09:19:38.498Z,97.20
2018-06-24T09:22:06.042Z,97.00
2018-06-24T09:24:33.639Z,97.30
2018-06-24T09:27:01.062Z,96.80
2018-06-24T09:29:28.541Z,97.50
2018-06-24T09:31:56.071Z,96.60
2018-06-24T09:34:23.537Z,96.40
2018-06-24T09:36:51.053Z,96.60
2018-06-24T09:39:18.538Z,96.40
2018-06-24T09:41:46.033Z,95.70
2018-06-24T09:44:13.507Z,96.00
2018-06-24T09:46:40.949Z,95.70
2018-06-24T09:49:08.417Z,95.50
2018-06-24T09:51:36.318Z,95.70
2018-06-24T09:54:04.070Z,95.60
2018-06-24T09:56:31.521Z,94.60
2018-06-24T09:58:58.979Z,94.90
2018-06-24T10:01:26.537Z,94.80
2018-06-24T10:06:21.468Z,94.30
2018-06-24T10:08:48.965Z,93.60
2018-06-24T10:11:16.690Z,93.10
2018-06-24T10:13:44.310Z,92.30
2018-06-24T10:16:11.806Z,92.90
2018-06-24T10:18:39.321Z,92.60
2018-06-24T10:21:06.814Z,92.80
2018-06-24T10:23:34.421Z,92.40
2018-06-24T10:26:02.248Z,92.00
2018-06-24T10:28:29.845Z,91.80
2018-06-24T10:30:57.411Z,92.20
2018-06-24T10:33:24.842Z,91.70
2018-06-24T10:35:52.246Z,91.10
2018-06-24T10:38:19.726Z,91.10
2018-06-24T10:40:47.442Z,91.70
2018-06-24T10:43:14.940Z,92.10
2018-06-24T10:45:42.514Z,91.90
2018-06-24T10:48:09.962Z,91.30
2018-06-24T10:53:05.906Z,91.10
2018-06-24T10:55:33.392Z,91.40
2018-06-24T10:58:01.113Z,90.70
2018-06-24T11:00:28.566Z,91.10
2018-06-24T11:05:23.963Z,91.70
2018-06-24T11:07:51.449Z,92.00
2018-06-24T11:10:19.460Z,91.90
2018-06-24T11:12:46.965Z,91.50
2018-06-24T11:15:14.810Z,91.10
2018-06-24T11:17:42.318Z,91.30
2018-06-24T11:20:09.821Z,91.70
2018-06-24T11:22:37.258Z,92.20
2018-06-24T11:25:05.066Z,92.00
2018-06-24T11:27:32.594Z,92.10
2018-06-24T11:30:00.115Z,91.60
2018-06-24T11:32:27.583Z,91.60
2018-06-24T11:34:55.106Z,90.80
2018-06-24T11:37:22.803Z,90.60
2018-06-24T11:39:50.250Z,90.40
2018-06-24T11:42:17.941Z,90.10
2018-06-24T11:44:45.398Z,90.30
2018-06-24T11:47:13.149Z,91.10
2018-06-24T11:49:40.701Z,91.30
2018-06-24T11:52:08.127Z,90.00
2018-06-24T11:54:35.827Z,87.60
2018-06-24T11:57:03.495Z,87.60
2018-06-24T11:59:30.906Z,88.40
2018-06-24T12:01:58.388Z,90.10
2018-06-24T12:04:26.106Z,90.50
2018-06-24T12:06:53.729Z,90.20
2018-06-24T12:09:21.155Z,90.30
2018-06-24T12:11:48.682Z,90.50
2018-06-24T12:14:16.343Z,90.20
2018-06-24T12:16:43.930Z,90.30
2018-06-24T12:19:11.630Z,90.30
2018-06-24T12:21:39.104Z,89.80
2018-06-24T12:24:06.636Z,90.00
2018-06-24T12:26:34.258Z,89.90
2018-06-24T12:29:01.732Z,90.00
2018-06-24T12:31:29.445Z,90.40
2018-06-24T12:33:56.914Z,90.60
2018-06-24T12:36:39.199Z,90.00
2018-06-24T12:39:10.177Z,89.20
2018-06-24T12:41:37.846Z,88.90
2018-06-24T12:46:33.457Z,89.70
2018-06-24T12:49:01.018Z,90.10
2018-06-24T12:51:28.693Z,90.00
2018-06-24T12:53:56.522Z,90.40
2018-06-24T12:56:23.987Z,90.80
2018-06-24T12:58:51.720Z,90.50
2018-06-24T13:01:18.915Z,91.10
2018-06-24T13:03:46.339Z,91.00
2018-06-24T13:06:14.222Z,90.60
2018-06-24T13:08:41.855Z,90.90
2018-06-24T13:11:09.591Z,91.10
2018-06-24T13:13:37.227Z,91.20
2018-06-24T13:16:05.111Z,91.40
2018-06-24T13:18:32.787Z,91.40
2018-06-24T13:21:00.572Z,91.50
2018-06-24T13:23:27.988Z,91.40
2018-06-24T13:25:55.826Z,91.50
2018-06-24T13:28:23.367Z,91.60
2018-06-24T13:30:51.086Z,91.60
2018-06-24T13:33:18.533Z,91.30
2018-06-24T13:35:45.983Z,91.90
2018-06-24T13:38:13.641Z,91.70
2018-06-24T13:40:41.289Z,91.90
2018-06-24T13:43:08.835Z,92.20
2018-06-24T13:45:36.437Z,92.20
2018-06-24T13:48:04.735Z,92.20
2018-06-24T13:50:32.193Z,92.50
2018-06-24T13:52:59.645Z,92.90
2018-06-24T13:55:27.318Z,92.20
2018-06-24T13:57:54.902Z,92.30
2018-06-24T14:00:22.506Z,92.70
2018-06-24T14:02:50.171Z,92.90
2018-06-24T14:05:17.805Z,92.90
2018-06-24T14:07:45.203Z,93.00
2018-06-24T14:10:12.869Z,93.50
2018-06-24T14:12:40.558Z,92.70
2018-06-24T14:15:08.083Z,92.50
2018-06-24T14:17:35.601Z,92.50
2018-06-24T14:20:03.340Z,93.00
2018-06-24T14:22:31.158Z,93.10
2018-06-24T14:24:58.627Z,92.90
2018-06-24T14:27:26.182Z,93.50
2018-06-24T14:29:53.614Z,93.30
2018-06-24T14:32:21.266Z,93.20
2018-06-24T14:34:48.903Z,93.30
2018-06-24T14:37:18.163Z,93.60
2018-06-24T14:39:45.642Z,93.90
2018-06-24T14:42:13.320Z,94.20
2018-06-24T14:44:40.827Z,94.10
2018-06-24T14:47:08.339Z,94.30
2018-06-24T14:49:36.129Z,94.10
2018-06-24T14:52:03.976Z,94.60
2018-06-24T14:54:31.606Z,94.50
2018-06-24T14:56:59.145Z,94.70
2018-06-24T14:59:26.955Z,95.00
2018-06-24T15:01:54.430Z,95.20
2018-06-24T15:06:49.621Z,94.80
2018-06-24T15:09:17.153Z,94.80
2018-06-24T15:11:45.062Z,94.80
2018-06-24T15:14:12.555Z,94.90
2018-06-24T15:16:40.390Z,95.00
2018-06-24T15:19:07.922Z,95.00
2018-06-24T15:21:35.863Z,95.20
2018-06-24T15:24:03.354Z,95.20
2018-06-24T15:26:31.290Z,95.10
2018-06-24T15:28:58.734Z,95.30
2018-06-24T15:33:54.291Z,95.30
2018-06-24T15:36:21.819Z,95.40
2018-06-24T15:38:49.732Z,95.40
2018-06-24T15:41:17.126Z,95.40
2018-06-24T15:43:44.914Z,95.60
2018-06-24T15:46:12.388Z,95.20
2018-06-24T15:48:43.464Z,95.40
2018-06-24T15:51:12.423Z,95.80
2018-06-24T15:53:40.243Z,95.60
2018-06-24T15:56:07.806Z,95.70
2018-06-24T15:58:35.182Z,95.70
2018-06-24T16:01:02.638Z,95.70
2018-06-24T16:03:30.229Z,95.80
2018-06-24T16:05:57.715Z,96.00
2018-06-24T16:08:25.191Z,96.10
2018-06-24T16:10:52.647Z,95.70
2018-06-24T16:13:20.147Z,95.70
2018-06-24T16:15:47.641Z,95.80
2018-06-24T16:18:15.065Z,95.90
2018-06-24T16:20:42.713Z,95.90
2018-06-24T16:23:10.196Z,96.00
2018-06-24T16:28:06.163Z,96.10
2018-06-24T16:30:33.693Z,96.20
2018-06-24T16:35:28.809Z,96.50
2018-06-24T16:37:56.489Z,96.30
2018-06-24T16:40:23.949Z,96.60
2018-06-24T16:42:51.350Z,96.70
2018-06-24T16:45:19.030Z,96.50
2018-06-24T16:47:46.762Z,96.20
2018-06-24T16:50:14.237Z,96.30
2018-06-24T16:52:41.945Z,96.20
2018-06-24T16:55:09.538Z,96.30
2018-06-24T16:57:37.045Z,96.10
2018-06-24T17:00:04.950Z,96.30
2018-06-24T17:02:32.421Z,96.10
2018-06-24T17:05:00.035Z,96.20
2018-06-24T17:07:27.533Z,96.20
2018-06-24T17:09:54.974Z,96.30
2018-06-24T17:12:22.461Z,96.20
2018-06-24T17:14:49.968Z,96.30
2018-06-24T17:17:17.435Z,96.10
2018-06-24T17:19:44.864Z,96.10
2018-06-24T17:22:12.649Z,96.10
2018-06-24T17:24:40.066Z,96.00
2018-06-24T17:27:07.858Z,96.00
2018-06-24T17:29:35.370Z,96.20
2018-06-24T17:32:03.209Z,96.60
2018-06-24T17:34:31.275Z,96.30
2018-06-24T17:36:58.825Z,96.50
2018-06-24T17:39:26.396Z,96.40
2018-06-24T17:41:54.071Z,96.60
2018-06-24T17:44:21.554Z,96.60
2018-06-24T17:46:49.197Z,96.60
2018-06-24T17:49:17.109Z,96.60
2018-06-24T17:51:44.783Z,96.70
2018-06-24T17:54:12.300Z,96.90
2018-06-24T17:56:39.782Z,96.90
2018-06-24T17:59:07.293Z,97.10
2018-06-24T18:01:34.764Z,97.20
2018-06-24T18:04:02.225Z,97.20
2018-06-24T18:06:30.134Z,97.10
2018-06-24T18:08:57.530Z,97.10
2018-06-24T18:11:24.983Z,97.20
2018-06-24T18:13:52.519Z,97.30
2018-06-24T18:16:19.995Z,97.10
2018-06-24T18:18:47.494Z,97.10
2018-06-24T18:23:42.522Z,97.20
2018-06-24T18:26:10.118Z,97.30
2018-06-24T18:28:37.880Z,97.30
2018-06-24T18:31:05.377Z,97.30
2018-06-24T18:33:32.941Z,97.40
2018-06-24T18:36:00.708Z,97.50
2018-06-24T18:38:28.215Z,97.50
2018-06-24T18:40:55.965Z,97.60
2018-06-24T18:43:23.410Z,97.50
2018-06-24T18:45:51.031Z,97.50
2018-06-24T18:48:18.925Z,97.80
2018-06-24T18:50:46.579Z,97.70
2018-06-24T18:53:14.084Z,97.70
2018-06-24T18:55:41.749Z,97.90
2018-06-24T18:58:09.176Z,97.80
2018-06-24T19:00:36.647Z,97.90
2018-06-24T19:03:05.096Z,97.90
2018-06-24T19:05:32.187Z,98.00
2018-06-24T19:07:59.666Z,98.00
2018-06-24T19:10:27.166Z,97.90
2018-06-24T19:12:54.691Z,98.00
2018-06-24T19:15:22.413Z,98.10
2018-06-24T19:17:49.877Z,98.10
2018-06-24T19:20:17.437Z,98.20
2018-06-24T19:22:44.891Z,98.40
2018-06-24T19:27:39.785Z,98.70
2018-06-24T19:30:07.308Z,99.40
2018-06-24T19:32:34.800Z,99.90
2018-06-24T19:35:02.294Z,99.90
2018-06-24T19:37:29.862Z,99.90
2018-06-24T19:39:57.690Z,99.90
2018-06-24T19:42:25.163Z,99.90
2018-06-24T19:44:52.628Z,99.90
2018-06-24T19:47:20.104Z,99.90
2018-06-24T19:49:47.915Z,99.90
2018-06-24T19:52:15.459Z,99.90
2018-06-24T19:54:43.133Z,99.90
2018-06-24T19:57:10.920Z,99.90
2018-06-24T19:59:38.378Z,99.90
2018-06-24T20:02:06.330Z,99.90
2018-06-24T20:04:33.790Z,99.90
2018-06-24T20:07:01.267Z,99.90
2018-06-24T20:09:28.838Z,99.90
2018-06-24T20:11:56.232Z,99.90
2018-06-24T20:14:23.757Z,99.90
2018-06-24T20:16:51.406Z,99.90
2018-06-24T20:19:18.878Z,99.90
2018-06-24T20:21:46.502Z,99.90
2018-06-24T20:24:13.919Z,99.90
2018-06-24T20:26:41.410Z,99.90
2018-06-24T20:29:08.857Z,99.90
2018-06-24T20:31:36.412Z,99.90
2018-06-24T20:34:04.143Z,99.90
2018-06-24T20:36:31.553Z,99.90
2018-06-24T20:38:59.023Z,99.90
2018-06-24T20:41:26.496Z,99.90
2018-06-24T20:43:54.050Z,99.90
2018-06-24T20:46:21.572Z,99.90
2018-06-24T20:48:49.324Z,99.90
2018-06-24T20:51:16.822Z,99.90
2018-06-24T20:53:44.385Z,99.90
2018-06-24T20:56:11.879Z,99.90
2018-06-24T20:58:39.323Z,99.90
2018-06-24T21:01:06.750Z,99.90
2018-06-24T21:03:34.234Z,99.90
2018-06-24T21:06:01.720Z,99.90
2018-06-24T21:10:56.660Z,99.90
2018-06-24T21:13:24.188Z,99.90
2018-06-24T21:15:51.936Z,99.90
2018-06-24T21:18:19.341Z,99.90
2018-06-24T21:20:46.827Z,99.90
2018-06-24T21:23:14.269Z,99.90
2018-06-24T21:25:41.711Z,99.90
2018-06-24T21:28:09.190Z,99.90
2018-06-24T21:30:36.673Z,99.90
2018-06-24T21:33:04.318Z,99.90
2018-06-24T21:35:31.847Z,99.90
2018-06-24T21:37:59.308Z,99.90
2018-06-24T21:40:26.729Z,99.90
2018-06-24T21:42:54.238Z,99.90
2018-06-24T21:45:21.793Z,99.90
2018-06-24T21:47:49.293Z,99.90
2018-06-24T21:50:16.789Z,99.90
2018-06-24T21:52:44.941Z,99.90
2018-06-24T21:55:12.469Z,99.90
2018-06-24T21:57:39.868Z,99.90
2018-06-24T22:00:08.288Z,99.90
2018-06-24T22:02:35.723Z,99.90
2018-06-24T22:05:03.444Z,99.90
2018-06-24T22:07:31.233Z,99.90
2018-06-24T22:09:58.703Z,99.90
2018-06-24T22:12:26.298Z,99.90
2018-06-24T22:14:53.828Z,99.90
2018-06-24T22:17:21.270Z,99.90
2018-06-24T22:19:48.722Z,99.90
2018-06-24T22:22:16.239Z,99.90
2018-06-24T22:24:43.793Z,99.90
2018-06-24T22:27:11.239Z,99.90
2018-06-24T22:29:38.827Z,99.90
2018-06-24T22:32:06.510Z,99.90
2018-06-24T22:34:33.966Z,99.90
2018-06-24T22:37:01.564Z,99.90
2018-06-24T22:39:29.190Z,99.90
2018-06-24T22:41:56.948Z,99.90
2018-06-24T22:44:24.488Z,99.90
2018-06-24T22:46:51.914Z,99.90
2018-06-24T22:49:19.402Z,99.90
2018-06-24T22:51:47.254Z,99.90
2018-06-24T22:54:15.230Z,99.90
2018-06-24T22:56:42.714Z,99.90
2018-06-24T22:59:21.815Z,99.90
2018-06-24T23:01:49.340Z,99.90
2018-06-24T23:04:22.965Z,99.90
2018-06-24T23:06:56.706Z,99.90
2018-06-24T23:09:24.267Z,99.90
2018-06-24T23:11:51.748Z,99.90
2018-06-24T23:14:19.474Z,99.90
2018-06-24T23:16:47.009Z,99.90
2018-06-24T23:19:14.500Z,99.90
2018-06-24T23:24:09.459Z,99.90
2018-06-24T23:26:36.911Z,99.90
2018-06-24T23:29:04.968Z,99.90
2018-06-24T23:31:32.502Z,99.90
2018-06-24T23:33:59.974Z,99.90
2018-06-24T23:36:27.598Z,99.90
2018-06-24T23:38:55.110Z,99.90
2018-06-24T23:41:23.275Z,99.90
2018-06-24T23:43:51.175Z,99.90
2018-06-24T23:46:18.775Z,99.90
2018-06-24T23:48:46.333Z,99.90
2018-06-24T23:51:14.427Z,99.90
2018-06-24T23:53:41.910Z,99.90
2018-06-24T23:56:09.777Z,99.90
2018-06-24T23:58:43.767Z,99.90
